METAR Data
IDs: Format: Raw Decoded Include TAF

Data at: 1353 UTC 10 Aug 2022

KSDB 101253Z AUTO 10SM CLR 19/04 A3018 RMK AO2 SLP160 T01940044 $
KSDB 101153Z AUTO 20003KT 10SM 20/04 A3017 RMK AO2 SLP157 T02000044 10233 20189 $
KSDB 101053Z AUTO 25008KT 10SM 19/04 A3018 RMK AO2 SLP157 T01940039 $
KSDB 100953Z AUTO 10SM CLR 19/04 A3017 RMK AO2 SLP155 T01940044 $
KSDB 100853Z AUTO 10SM CLR 20/07 A3018 RMK AO2 SLP157 T02000067 $
KSDB 100653Z AUTO 10SM CLR 22/03 A3019 RMK AO2 SLP163 T02220028 $
KSDB 100553Z AUTO 10SM CLR 23/06 A3019 RMK AO2 SLP162 T02330061 10289 20228 51016 $
KSDB 100453Z AUTO 10SM CLR 24/06 A3019 RMK AO2 SLP160 T02390061 $
KSDB 100353Z AUTO 10SM CLR 24/M02 A3016 RMK AO2 SLP155 T02391017 $
KSDB 100253Z AUTO 10SM CLR 24/M02 A3014 RMK AO2 SLP149 T02441017 53006 $
KSDB 100153Z AUTO 10SM CLR 26/04 A3012 RMK AO2 SLP143 T02610044 $
KSDB 100053Z AUTO 10SM CLR 28/06 A3012 RMK AO2 SLPNO T02830056 $
KSDB 092353Z AUTO 10SM CLR 29/05 A3012 RMK AO2 SLP137 T02890050 10317 20272 56011 $
KSDB 092253Z AUTO 10SM CLR 31/04 A3013 RMK AO2 SLP139 T03060039 $
KSDB 092153Z AUTO 16013G26KT 10SM CLR 30/01 A3014 RMK AO2 PK WND 15031/2057 WSHFT 2115 SLP142 T03000006 $
KSDB 092132Z AUTO 15014G25KT 10SM CLR 31/M01 A3014 RMK AO2 PK WND 15031/2057 WSHFT 2115 T03111011 $
KSDB 092118Z AUTO 17018G26KT 10SM CLR 31/M04 A3016 RMK AO2 PK WND 15031/2057 WSHFT 2101 T03111039 $
KSDB 092053Z AUTO 16015G25KT 10SM CLR 30/M03 A3016 RMK AO2 PK WND 20026/2032 SLP148 T03001028 58006 $
KSDB 091953Z AUTO 16016G22KT 10SM CLR 28/M02 A3017 RMK AO2 SLP156 T02781022 $
KSDB 091853Z AUTO 17011G21KT 10SM CLR 27/M01 A3018 RMK AO2 SLP157 T02721006
KSDB 091753Z AUTO 14011G19KT 28/M01 A3018 RMK AO2 SLP156 T02781006 $
KSDB 091653Z AUTO 16011G19KT 10SM CLR 26/M02 A3018 RMK AO2 SLP160 T02561017 $
KSDB 091553Z AUTO 17009KT 10SM CLR 23/00 A3017 RMK AO2 SLP158 T02330000 $
KSDB 091453Z AUTO 16010KT 10SM 22/00 A3016 RMK AO2 SLP153 T02220000 $
KSDB 091353Z AUTO 18009KT 10SM 21/06 A3014 RMK AO2 SLP147 T02060061 $
KSDB 091153Z AUTO 20007KT 10SM CLR 21/01 A3013 RMK AO2 SLP137 T02110011 10233 20206 56003 $
KSDB 091053Z AUTO 20006KT 10SM 21/03 A3013 RMK AO2 SLP135 T02110028 $
KSDB 090953Z AUTO 20005KT 10SM CLR 21/03 A3013 RMK AO2 SLP135 T02110028 $
KSDB 090853Z AUTO 20004KT 10SM CLR 22/04 A3013 RMK AO2 SLP138 T02170039 $
KSDB 090753Z AUTO 22005KT 10SM CLR 21/04 A3015 RMK AO2 SLP144 T02110039 403330211 $
KSDB 090653Z AUTO 24004KT 10SM CLR 23/02 A3016 RMK AO2 SLP146 T02280017 $
KSDB 090553Z AUTO 22004KT 10SM CLR 23/M02 A3016 RMK AO2 SLP149 T02281022 10311 20228 $
KSDB 090453Z AUTO 28006KT 10SM CLR 23/M01 A3017 RMK AO2 SLP151 T02331006 $
KSDB 090353Z AUTO 17006KT 10SM BKN090 24/M01 A3016 RMK AO2 SLP148 T02391011 $
KSDB 090253Z AUTO 17006KT 10SM FEW090 26/00 A3014 RMK AO2 SLP142 T02560000 53008 $